createdAt,value
2023-01-20T00:02:05.891Z,8.80
2023-01-20T00:04:49.752Z,8.97
2023-01-20T00:07:18.009Z,8.33
2023-01-20T00:09:46.394Z,8.53
2023-01-20T00:12:14.787Z,8.03
2023-01-20T00:14:44.468Z,7.27
2023-01-20T00:17:12.725Z,8.37
2023-01-20T00:19:41.016Z,6.90
2023-01-20T00:22:09.370Z,7.37
2023-01-20T00:24:37.664Z,7.60
2023-01-20T00:27:06.099Z,7.43
2023-01-20T00:29:34.441Z,6.70
2023-01-20T00:32:04.381Z,6.93
2023-01-20T00:34:32.750Z,7.30
2023-01-20T00:37:01.190Z,7.10
2023-01-20T00:39:29.792Z,6.97
2023-01-20T00:41:58.138Z,6.30
2023-01-20T00:44:26.546Z,6.77
2023-01-20T00:46:55.382Z,6.13
2023-01-20T00:49:33.821Z,6.43
2023-01-20T00:52:02.436Z,7.37
2023-01-20T00:54:30.726Z,7.23
2023-01-20T00:56:59.639Z,6.83
2023-01-20T00:59:27.987Z,6.60
2023-01-20T01:01:56.363Z,6.40
2023-01-20T01:04:24.876Z,6.53
2023-01-20T01:06:54.629Z,6.47
2023-01-20T01:09:22.956Z,6.87
2023-01-20T01:11:52.874Z,6.40
2023-01-20T01:14:21.225Z,6.73
2023-01-20T01:16:49.561Z,6.27
2023-01-20T01:19:19.402Z,5.87
2023-01-20T01:21:47.721Z,5.90
2023-01-20T01:24:17.392Z,5.87
2023-01-20T01:26:46.182Z,6.07
2023-01-20T01:29:14.817Z,5.50
2023-01-20T01:31:43.430Z,5.77
2023-01-20T01:34:11.931Z,5.47
2023-01-20T01:36:40.459Z,5.83
2023-01-20T01:39:09.020Z,5.60
2023-01-20T01:41:39.112Z,5.40
2023-01-20T01:44:10.036Z,5.30
2023-01-20T01:46:38.950Z,5.60
2023-01-20T01:49:10.578Z,5.47
2023-01-20T01:51:42.385Z,5.60
2023-01-20T01:54:14.405Z,5.67
2023-01-20T01:56:46.107Z,5.50
2023-01-20T01:59:16.071Z,5.67
2023-01-20T02:01:48.031Z,6.20
2023-01-20T02:04:18.275Z,6.30
2023-01-20T02:06:50.075Z,6.70
2023-01-20T02:09:19.248Z,6.40
2023-01-20T02:11:52.662Z,6.00
2023-01-20T02:14:26.243Z,6.00
2023-01-20T02:17:03.732Z,6.60
2023-01-20T02:20:04.980Z,6.27
2023-01-20T02:22:46.928Z,6.10
2023-01-20T02:25:58.442Z,5.90
2023-01-20T02:28:59.505Z,5.63
2023-01-20T02:32:12.833Z,6.17
2023-01-20T02:34:46.048Z,5.90
2023-01-20T02:37:17.938Z,5.67
2023-01-20T02:39:56.202Z,5.50
2023-01-20T02:42:28.595Z,5.10
2023-01-20T02:45:01.001Z,5.43
2023-01-20T02:47:36.724Z,5.60
2023-01-20T02:50:10.463Z,5.60
2023-01-20T02:52:43.009Z,5.00
2023-01-20T02:55:15.316Z,5.17
2023-01-20T02:57:47.785Z,5.03
2023-01-20T03:00:20.412Z,5.90
2023-01-20T03:02:54.845Z,5.10
2023-01-20T03:05:27.680Z,4.97
2023-01-20T03:07:58.875Z,5.03
2023-01-20T03:10:31.144Z,5.00
2023-01-20T03:13:03.925Z,5.20
2023-01-20T03:15:37.033Z,5.70
2023-01-20T03:18:07.107Z,4.70
2023-01-20T03:20:35.830Z,5.07
2023-01-20T03:23:04.989Z,5.70
2023-01-20T03:25:34.492Z,4.97
2023-01-20T03:28:03.100Z,5.30
2023-01-20T03:30:32.030Z,5.40
2023-01-20T03:33:01.306Z,5.10
2023-01-20T03:35:32.566Z,6.30
2023-01-20T03:38:01.476Z,6.20
2023-01-20T03:40:37.522Z,5.30
2023-01-20T03:43:13.332Z,5.30
2023-01-20T03:45:47.789Z,5.60
2023-01-20T03:48:23.392Z,5.70
2023-01-20T03:50:57.763Z,5.77
2023-01-20T03:53:35.338Z,5.00
2023-01-20T03:56:08.415Z,5.60
2023-01-20T03:58:42.386Z,5.10
2023-01-20T04:01:18.590Z,5.47
2023-01-20T04:03:50.142Z,5.27
2023-01-20T04:06:22.903Z,5.10
2023-01-20T04:08:56.981Z,5.27
2023-01-20T04:11:26.232Z,4.90
2023-01-20T04:13:55.057Z,5.00
2023-01-20T04:16:25.829Z,5.27
2023-01-20T04:18:55.474Z,5.67
2023-01-20T04:21:30.117Z,4.97
2023-01-20T04:24:06.383Z,5.50
2023-01-20T04:26:35.201Z,6.13
2023-01-20T04:29:10.576Z,5.67
2023-01-20T04:31:40.620Z,5.60
2023-01-20T04:34:12.354Z,5.20
2023-01-20T04:36:42.819Z,5.30
2023-01-20T04:39:11.389Z,5.77
2023-01-20T04:41:39.988Z,5.60
2023-01-20T04:44:08.762Z,5.00
2023-01-20T04:46:37.493Z,5.43
2023-01-20T04:49:06.437Z,5.07
2023-01-20T04:51:35.358Z,5.63
2023-01-20T04:54:05.810Z,5.20
2023-01-20T04:56:34.791Z,5.13
2023-01-20T04:59:03.470Z,5.00
2023-01-20T05:01:32.089Z,5.07
2023-01-20T05:04:03.354Z,5.43
2023-01-20T05:06:34.408Z,5.50
2023-01-20T05:12:32.811Z,5.73
2023-01-20T05:15:01.408Z,5.20
2023-01-20T05:17:33.072Z,4.67
2023-01-20T05:20:01.717Z,4.80
2023-01-20T05:22:33.216Z,4.60
2023-01-20T05:25:01.875Z,4.80
2023-01-20T05:27:31.675Z,5.33
2023-01-20T05:30:00.116Z,5.03
2023-01-20T05:32:28.457Z,5.13
2023-01-20T05:34:56.809Z,4.80
2023-01-20T05:37:25.512Z,5.33
2023-01-20T05:39:54.034Z,4.57
2023-01-20T05:42:22.922Z,5.20
2023-01-20T05:44:53.002Z,4.60
2023-01-20T05:47:21.599Z,4.73
2023-01-20T05:49:50.420Z,4.77
2023-01-20T05:52:19.007Z,4.90
2023-01-20T05:54:47.820Z,4.83
2023-01-20T05:57:18.632Z,5.20
2023-01-20T06:00:01.252Z,4.47
2023-01-20T06:02:34.816Z,4.50
2023-01-20T06:05:05.555Z,4.53
2023-01-20T06:07:34.753Z,4.80
2023-01-20T06:10:03.701Z,4.60
2023-01-20T06:12:32.189Z,4.80
2023-01-20T06:15:02.064Z,4.77
2023-01-20T06:17:30.587Z,5.30
2023-01-20T06:20:00.428Z,4.80
2023-01-20T06:22:29.512Z,4.87
2023-01-20T06:24:58.005Z,4.83
2023-01-20T06:27:26.673Z,4.60
2023-01-20T06:29:55.159Z,5.07
2023-01-20T06:32:25.371Z,4.73
2023-01-20T06:34:54.262Z,4.90
2023-01-20T06:37:22.755Z,4.87
2023-01-20T06:39:51.179Z,5.30
2023-01-20T06:42:19.826Z,5.50
2023-01-20T06:44:48.392Z,5.53
2023-01-20T22:31:39.105Z,29.53
2023-01-20T22:34:12.661Z,38.70
2023-01-20T22:36:41.474Z,34.47
2023-01-20T22:39:12.933Z,31.23
2023-01-20T22:41:42.157Z,34.40
2023-01-20T22:44:11.175Z,34.63
2023-01-20T22:46:39.674Z,33.03
2023-01-20T22:49:08.006Z,31.10
2023-01-20T22:51:37.746Z,24.67
2023-01-20T22:54:07.505Z,20.80
2023-01-20T22:56:36.044Z,17.33
2023-01-20T22:59:04.575Z,16.10
2023-01-20T23:01:34.965Z,15.73
2023-01-20T23:04:06.781Z,12.00
2023-01-20T23:06:38.048Z,9.53
2023-01-20T23:09:09.211Z,8.40
2023-01-20T23:11:40.091Z,7.90
2023-01-20T23:14:12.845Z,6.00
2023-01-20T23:16:46.502Z,5.60
2023-01-20T23:19:15.189Z,5.40
2023-01-20T23:21:47.774Z,4.80
2023-01-20T23:24:16.224Z,5.40
2023-01-20T23:26:45.243Z,7.10
2023-01-20T23:29:13.795Z,9.03
2023-01-20T23:31:42.380Z,9.00
2023-01-20T23:34:10.991Z,8.67
2023-01-20T23:36:39.613Z,7.17
2023-01-20T23:39:10.815Z,6.67
2023-01-20T23:41:39.459Z,7.00
2023-01-20T23:44:08.260Z,7.23
2023-01-20T23:46:37.140Z,7.80
2023-01-20T23:51:51.665Z,8.60
2023-01-20T23:54:20.442Z,9.30
2023-01-20T23:56:48.798Z,10.73
2023-01-20T23:59:17.890Z,10.23
